sensor_id;sensor_type;location;lat;lon;timestamp;P1;durP1;ratioP1;P2;durP2;ratioP2
12703;SDS011;6416;52.182;7.650;2023-07-30T00:01:18;3.33;;;1.90;;
12703;SDS011;6416;52.182;7.650;2023-07-30T00:03:43;1.95;;;1.63;;
12703;SDS011;6416;52.182;7.650;2023-07-30T00:06:09;3.38;;;2.10;;
12703;SDS011;6416;52.182;7.650;2023-07-30T00:08:34;3.05;;;2.13;;
12703;SDS011;6416;52.182;7.650;2023-07-30T00:11:00;4.68;;;1.85;;
12703;SDS011;6416;52.182;7.650;2023-07-30T00:13:25;3.08;;;1.70;;
12703;SDS011;6416;52.182;7.650;2023-07-30T00:15:51;4.03;;;1.77;;
12703;SDS011;6416;52.182;7.650;2023-07-30T00:18:16;4.07;;;1.83;;
12703;SDS011;6416;52.182;7.650;2023-07-30T00:20:42;2.10;;;1.83;;
12703;SDS011;6416;52.182;7.650;2023-07-30T00:23:08;3.70;;;1.88;;
12703;SDS011;6416;52.182;7.650;2023-07-30T00:25:33;2.67;;;1.88;;
12703;SDS011;6416;52.182;7.650;2023-07-30T00:27:58;2.70;;;2.13;;
12703;SDS011;6416;52.182;7.650;2023-07-30T00:30:24;2.53;;;1.75;;
12703;SDS011;6416;52.182;7.650;2023-07-30T00:32:49;3.72;;;1.92;;
12703;SDS011;6416;52.182;7.650;2023-07-30T00:35:15;2.95;;;1.88;;
12703;SDS011;6416;52.182;7.650;2023-07-30T00:37:41;5.53;;;1.80;;
12703;SDS011;6416;52.182;7.650;2023-07-30T00:40:06;2.72;;;1.90;;
12703;SDS011;6416;52.182;7.650;2023-07-30T00:42:32;2.55;;;2.00;;
12703;SDS011;6416;52.182;7.650;2023-07-30T00:44:58;2.88;;;1.90;;
12703;SDS011;6416;52.182;7.650;2023-07-30T00:47:23;2.80;;;1.85;;
12703;SDS011;6416;52.182;7.650;2023-07-30T00:49:50;4.20;;;2.05;;
12703;SDS011;6416;52.182;7.650;2023-07-30T00:52:16;3.72;;;2.08;;
12703;SDS011;6416;52.182;7.650;2023-07-30T00:54:42;2.15;;;1.73;;
12703;SDS011;6416;52.182;7.650;2023-07-30T00:57:07;3.90;;;2.20;;
12703;SDS011;6416;52.182;7.650;2023-07-30T00:59:35;3.83;;;2.40;;
12703;SDS011;6416;52.182;7.650;2023-07-30T01:02:01;2.22;;;2.03;;
12703;SDS011;6416;52.182;7.650;2023-07-30T01:04:27;4.70;;;2.50;;
12703;SDS011;6416;52.182;7.650;2023-07-30T01:06:53;2.28;;;1.98;;
12703;SDS011;6416;52.182;7.650;2023-07-30T01:09:18;4.63;;;2.13;;
12703;SDS011;6416;52.182;7.650;2023-07-30T01:11:43;3.08;;;1.95;;
12703;SDS011;6416;52.182;7.650;2023-07-30T01:14:10;3.65;;;2.22;;
12703;SDS011;6416;52.182;7.650;2023-07-30T01:16:37;2.30;;;1.98;;
12703;SDS011;6416;52.182;7.650;2023-07-30T01:19:03;5.20;;;2.00;;
12703;SDS011;6416;52.182;7.650;2023-07-30T01:21:36;4.07;;;2.00;;
12703;SDS011;6416;52.182;7.650;2023-07-30T01:24:02;4.15;;;2.20;;
12703;SDS011;6416;52.182;7.650;2023-07-30T01:26:30;3.47;;;2.40;;
12703;SDS011;6416;52.182;7.650;2023-07-30T01:29:03;3.13;;;2.00;;
12703;SDS011;6416;52.182;7.650;2023-07-30T01:31:34;2.83;;;2.20;;
12703;SDS011;6416;52.182;7.650;2023-07-30T01:34:01;2.72;;;2.03;;
12703;SDS011;6416;52.182;7.650;2023-07-30T01:36:29;2.72;;;2.08;;
12703;SDS011;6416;52.182;7.650;2023-07-30T01:38:56;3.17;;;2.20;;
12703;SDS011;6416;52.182;7.650;2023-07-30T01:41:22;3.30;;;2.10;;
12703;SDS011;6416;52.182;7.650;2023-07-30T01:43:48;2.22;;;2.00;;
12703;SDS011;6416;52.182;7.650;2023-07-30T01:46:13;2.97;;;2.08;;
12703;SDS011;6416;52.182;7.650;2023-07-30T01:48:38;2.33;;;1.95;;
12703;SDS011;6416;52.182;7.650;2023-07-30T01:51:04;3.17;;;2.28;;
12703;SDS011;6416;52.182;7.650;2023-07-30T01:53:29;2.28;;;2.00;;
12703;SDS011;6416;52.182;7.650;2023-07-30T01:55:55;4.17;;;2.10;;
12703;SDS011;6416;52.182;7.650;2023-07-30T01:58:20;4.20;;;2.53;;
12703;SDS011;6416;52.182;7.650;2023-07-30T02:00:46;2.60;;;2.13;;
12703;SDS011;6416;52.182;7.650;2023-07-30T02:03:11;4.10;;;2.08;;
12703;SDS011;6416;52.182;7.650;2023-07-30T02:05:37;2.60;;;2.40;;
12703;SDS011;6416;52.182;7.650;2023-07-30T02:08:02;5.07;;;2.45;;
12703;SDS011;6416;52.182;7.650;2023-07-30T02:10:28;3.03;;;2.15;;
12703;SDS011;6416;52.182;7.650;2023-07-30T02:12:53;3.23;;;2.20;;
12703;SDS011;6416;52.182;7.650;2023-07-30T02:15:19;3.20;;;2.07;;
12703;SDS011;6416;52.182;7.650;2023-07-30T02:17:44;3.70;;;2.60;;
12703;SDS011;6416;52.182;7.650;2023-07-30T02:20:10;3.08;;;2.30;;
12703;SDS011;6416;52.182;7.650;2023-07-30T02:22:35;3.08;;;2.55;;
12703;SDS011;6416;52.182;7.650;2023-07-30T02:25:01;3.20;;;2.80;;
12703;SDS011;6416;52.182;7.650;2023-07-30T02:27:26;2.60;;;2.33;;
12703;SDS011;6416;52.182;7.650;2023-07-30T02:29:52;5.72;;;2.67;;
12703;SDS011;6416;52.182;7.650;2023-07-30T02:32:17;3.05;;;2.40;;
12703;SDS011;6416;52.182;7.650;2023-07-30T02:34:42;2.58;;;2.25;;
12703;SDS011;6416;52.182;7.650;2023-07-30T02:37:08;3.30;;;2.28;;
12703;SDS011;6416;52.182;7.650;2023-07-30T02:39:33;4.73;;;2.27;;
12703;SDS011;6416;52.182;7.650;2023-07-30T02:41:59;4.28;;;2.60;;
12703;SDS011;6416;52.182;7.650;2023-07-30T02:44:24;3.10;;;2.40;;
12703;SDS011;6416;52.182;7.650;2023-07-30T02:46:50;3.37;;;2.23;;
12703;SDS011;6416;52.182;7.650;2023-07-30T02:49:15;4.35;;;2.45;;
12703;SDS011;6416;52.182;7.650;2023-07-30T02:51:41;2.97;;;2.13;;
12703;SDS011;6416;52.182;7.650;2023-07-30T02:54:07;2.70;;;2.37;;
12703;SDS011;6416;52.182;7.650;2023-07-30T02:56:33;3.17;;;2.50;;
12703;SDS011;6416;52.182;7.650;2023-07-30T02:58:58;3.47;;;2.10;;
12703;SDS011;6416;52.182;7.650;2023-07-30T03:01:24;3.20;;;2.10;;
12703;SDS011;6416;52.182;7.650;2023-07-30T03:03:50;5.40;;;2.70;;
12703;SDS011;6416;52.182;7.650;2023-07-30T03:06:15;2.77;;;2.17;;
12703;SDS011;6416;52.182;7.650;2023-07-30T03:08:40;4.67;;;2.40;;
12703;SDS011;6416;52.182;7.650;2023-07-30T03:11:06;3.37;;;2.50;;
12703;SDS011;6416;52.182;7.650;2023-07-30T03:13:31;2.97;;;2.60;;
12703;SDS011;6416;52.182;7.650;2023-07-30T03:15:57;2.70;;;2.50;;
12703;SDS011;6416;52.182;7.650;2023-07-30T03:18:22;3.88;;;2.35;;
12703;SDS011;6416;52.182;7.650;2023-07-30T03:20:48;4.23;;;2.80;;
12703;SDS011;6416;52.182;7.650;2023-07-30T03:23:13;2.93;;;2.40;;
12703;SDS011;6416;52.182;7.650;2023-07-30T03:25:39;4.43;;;2.20;;
12703;SDS011;6416;52.182;7.650;2023-07-30T03:28:04;6.33;;;2.60;;
12703;SDS011;6416;52.182;7.650;2023-07-30T03:30:30;4.20;;;2.50;;
12703;SDS011;6416;52.182;7.650;2023-07-30T03:32:55;3.40;;;2.75;;
12703;SDS011;6416;52.182;7.650;2023-07-30T03:35:21;4.67;;;2.80;;
12703;SDS011;6416;52.182;7.650;2023-07-30T03:37:51;2.60;;;2.40;;
12703;SDS011;6416;52.182;7.650;2023-07-30T03:40:16;2.63;;;2.35;;
12703;SDS011;6416;52.182;7.650;2023-07-30T03:42:41;7.28;;;2.63;;
12703;SDS011;6416;52.182;7.650;2023-07-30T03:45:07;3.22;;;2.67;;
12703;SDS011;6416;52.182;7.650;2023-07-30T03:47:33;3.77;;;2.47;;
12703;SDS011;6416;52.182;7.650;2023-07-30T03:49:58;3.73;;;2.40;;
12703;SDS011;6416;52.182;7.650;2023-07-30T03:52:24;2.67;;;2.33;;
12703;SDS011;6416;52.182;7.650;2023-07-30T03:54:49;3.63;;;2.38;;
12703;SDS011;6416;52.182;7.650;2023-07-30T03:57:15;4.07;;;2.50;;
12703;SDS011;6416;52.182;7.650;2023-07-30T03:59:40;5.57;;;2.40;;
12703;SDS011;6416;52.182;7.650;2023-07-30T04:02:05;3.40;;;2.43;;
12703;SDS011;6416;52.182;7.650;2023-07-30T04:04:31;5.27;;;2.50;;
12703;SDS011;6416;52.182;7.650;2023-07-30T04:06:56;3.90;;;2.50;;
12703;SDS011;6416;52.182;7.650;2023-07-30T04:09:22;3.40;;;2.23;;
12703;SDS011;6416;52.182;7.650;2023-07-30T04:11:47;4.07;;;2.60;;
12703;SDS011;6416;52.182;7.650;2023-07-30T04:14:13;3.50;;;2.30;;
12703;SDS011;6416;52.182;7.650;2023-07-30T04:16:38;4.93;;;2.23;;
12703;SDS011;6416;52.182;7.650;2023-07-30T04:19:04;3.03;;;2.50;;
12703;SDS011;6416;52.182;7.650;2023-07-30T04:21:29;4.07;;;2.40;;
12703;SDS011;6416;52.182;7.650;2023-07-30T04:23:55;3.57;;;2.10;;
12703;SDS011;6416;52.182;7.650;2023-07-30T04:26:20;3.73;;;2.17;;
12703;SDS011;6416;52.182;7.650;2023-07-30T04:28:45;2.63;;;2.17;;
12703;SDS011;6416;52.182;7.650;2023-07-30T04:31:11;3.17;;;2.22;;
12703;SDS011;6416;52.182;7.650;2023-07-30T04:33:36;3.27;;;2.17;;
12703;SDS011;6416;52.182;7.650;2023-07-30T04:36:02;3.93;;;2.43;;
12703;SDS011;6416;52.182;7.650;2023-07-30T04:38:31;6.10;;;2.73;;
12703;SDS011;6416;52.182;7.650;2023-07-30T04:40:59;3.13;;;2.33;;
12703;SDS011;6416;52.182;7.650;2023-07-30T04:43:25;4.67;;;2.53;;
12703;SDS011;6416;52.182;7.650;2023-07-30T04:45:50;2.63;;;2.07;;
12703;SDS011;6416;52.182;7.650;2023-07-30T04:48:16;3.60;;;2.45;;
12703;SDS011;6416;52.182;7.650;2023-07-30T04:50:41;3.37;;;2.27;;
12703;SDS011;6416;52.182;7.650;2023-07-30T04:53:07;3.88;;;2.28;;
12703;SDS011;6416;52.182;7.650;2023-07-30T04:55:33;4.00;;;2.30;;
12703;SDS011;6416;52.182;7.650;2023-07-30T04:57:58;4.27;;;2.40;;
12703;SDS011;6416;52.182;7.650;2023-07-30T05:00:23;3.97;;;2.00;;
12703;SDS011;6416;52.182;7.650;2023-07-30T05:02:49;3.85;;;2.17;;
12703;SDS011;6416;52.182;7.650;2023-07-30T05:05:14;3.37;;;2.17;;
12703;SDS011;6416;52.182;7.650;2023-07-30T05:07:40;4.88;;;2.47;;
12703;SDS011;6416;52.182;7.650;2023-07-30T05:10:05;3.00;;;2.10;;
12703;SDS011;6416;52.182;7.650;2023-07-30T05:12:31;3.63;;;2.30;;
12703;SDS011;6416;52.182;7.650;2023-07-30T05:14:57;5.00;;;2.20;;
12703;SDS011;6416;52.182;7.650;2023-07-30T05:17:22;4.60;;;2.22;;
12703;SDS011;6416;52.182;7.650;2023-07-30T05:19:48;4.33;;;1.90;;
12703;SDS011;6416;52.182;7.650;2023-07-30T05:22:13;5.20;;;2.33;;
12703;SDS011;6416;52.182;7.650;2023-07-30T05:24:39;3.15;;;2.22;;
12703;SDS011;6416;52.182;7.650;2023-07-30T05:27:04;4.65;;;2.47;;
12703;SDS011;6416;52.182;7.650;2023-07-30T05:29:30;7.70;;;2.90;;
12703;SDS011;6416;52.182;7.650;2023-07-30T05:31:55;3.70;;;2.50;;
12703;SDS011;6416;52.182;7.650;2023-07-30T05:34:21;4.95;;;2.65;;
12703;SDS011;6416;52.182;7.650;2023-07-30T05:36:46;3.38;;;2.42;;
12703;SDS011;6416;52.182;7.650;2023-07-30T05:39:12;4.22;;;2.42;;
12703;SDS011;6416;52.182;7.650;2023-07-30T05:41:37;5.45;;;3.00;;
12703;SDS011;6416;52.182;7.650;2023-07-30T05:44:03;5.10;;;2.92;;
12703;SDS011;6416;52.182;7.650;2023-07-30T05:46:28;4.18;;;2.90;;
12703;SDS011;6416;52.182;7.650;2023-07-30T05:48:54;6.38;;;3.05;;
12703;SDS011;6416;52.182;7.650;2023-07-30T05:51:19;3.58;;;2.55;;
12703;SDS011;6416;52.182;7.650;2023-07-30T05:53:44;6.97;;;2.95;;
12703;SDS011;6416;52.182;7.650;2023-07-30T05:56:10;5.95;;;3.15;;
12703;SDS011;6416;52.182;7.650;2023-07-30T05:58:35;5.15;;;3.25;;
12703;SDS011;6416;52.182;7.650;2023-07-30T06:01:01;6.18;;;3.33;;
12703;SDS011;6416;52.182;7.650;2023-07-30T06:03:26;5.60;;;3.10;;
12703;SDS011;6416;52.182;7.650;2023-07-30T06:05:52;4.20;;;3.15;;
12703;SDS011;6416;52.182;7.650;2023-07-30T06:08:17;7.95;;;3.90;;
12703;SDS011;6416;52.182;7.650;2023-07-30T06:10:43;5.20;;;4.00;;
12703;SDS011;6416;52.182;7.650;2023-07-30T06:13:11;7.05;;;4.55;;
12703;SDS011;6416;52.182;7.650;2023-07-30T06:15:36;6.35;;;4.10;;
12703;SDS011;6416;52.182;7.650;2023-07-30T06:18:02;10.73;;;4.68;;
12703;SDS011;6416;52.182;7.650;2023-07-30T06:20:28;7.53;;;4.57;;
12703;SDS011;6416;52.182;7.650;2023-07-30T06:22:53;6.45;;;4.50;;
12703;SDS011;6416;52.182;7.650;2023-07-30T06:25:19;7.63;;;5.05;;
12703;SDS011;6416;52.182;7.650;2023-07-30T06:27:44;8.20;;;5.05;;
12703;SDS011;6416;52.182;7.650;2023-07-30T06:30:10;9.07;;;5.30;;
12703;SDS011;6416;52.182;7.650;2023-07-30T06:32:36;9.73;;;5.57;;
12703;SDS011;6416;52.182;7.650;2023-07-30T06:35:01;9.98;;;5.47;;
12703;SDS011;6416;52.182;7.650;2023-07-30T06:37:27;11.90;;;6.28;;
12703;SDS011;6416;52.182;7.650;2023-07-30T06:39:52;10.00;;;5.78;;
12703;SDS011;6416;52.182;7.650;2023-07-30T06:42:18;10.82;;;5.57;;
12703;SDS011;6416;52.182;7.650;2023-07-30T06:44:43;9.23;;;5.65;;
12703;SDS011;6416;52.182;7.650;2023-07-30T06:47:08;9.70;;;6.22;;
12703;SDS011;6416;52.182;7.650;2023-07-30T06:49:34;10.82;;;5.68;;
12703;SDS011;6416;52.182;7.650;2023-07-30T06:51:59;11.52;;;6.30;;
12703;SDS011;6416;52.182;7.650;2023-07-30T06:54:25;9.05;;;5.88;;
12703;SDS011;6416;52.182;7.650;2023-07-30T06:56:50;11.75;;;6.05;;
12703;SDS011;6416;52.182;7.650;2023-07-30T06:59:16;8.45;;;5.68;;
12703;SDS011;6416;52.182;7.650;2023-07-30T07:01:41;11.48;;;6.13;;
12703;SDS011;6416;52.182;7.650;2023-07-30T07:04:07;11.43;;;5.65;;
12703;SDS011;6416;52.182;7.650;2023-07-30T07:06:32;11.20;;;6.10;;
12703;SDS011;6416;52.182;7.650;2023-07-30T07:08:58;9.70;;;6.10;;
12703;SDS011;6416;52.182;7.650;2023-07-30T07:11:23;10.02;;;6.00;;
12703;SDS011;6416;52.182;7.650;2023-07-30T07:13:49;11.07;;;5.72;;
12703;SDS011;6416;52.182;7.650;2023-07-30T07:16:14;6.68;;;5.15;;
12703;SDS011;6416;52.182;7.650;2023-07-30T07:18:40;10.93;;;5.65;;
12703;SDS011;6416;52.182;7.650;2023-07-30T07:21:05;10.88;;;6.28;;
12703;SDS011;6416;52.182;7.650;2023-07-30T07:23:31;11.82;;;6.07;;
12703;SDS011;6416;52.182;7.650;2023-07-30T07:25:56;10.95;;;5.75;;
12703;SDS011;6416;52.182;7.650;2023-07-30T07:28:21;12.50;;;6.10;;
12703;SDS011;6416;52.182;7.650;2023-07-30T07:30:47;9.38;;;6.10;;
12703;SDS011;6416;52.182;7.650;2023-07-30T07:33:12;9.02;;;5.10;;
12703;SDS011;6416;52.182;7.650;2023-07-30T07:35:38;10.30;;;6.05;;
12703;SDS011;6416;52.182;7.650;2023-07-30T07:38:04;12.45;;;6.15;;
12703;SDS011;6416;52.182;7.650;2023-07-30T07:40:29;9.95;;;5.25;;
12703;SDS011;6416;52.182;7.650;2023-07-30T07:42:55;10.77;;;5.57;;
12703;SDS011;6416;52.182;7.650;2023-07-30T07:45:22;8.30;;;5.90;;
12703;SDS011;6416;52.182;7.650;2023-07-30T07:47:47;11.30;;;6.38;;
12703;SDS011;6416;52.182;7.650;2023-07-30T07:50:13;10.73;;;6.25;;
12703;SDS011;6416;52.182;7.650;2023-07-30T07:52:38;9.77;;;6.20;;
12703;SDS011;6416;52.182;7.650;2023-07-30T07:55:04;10.57;;;5.68;;
12703;SDS011;6416;52.182;7.650;2023-07-30T07:57:30;8.45;;;5.93;;
12703;SDS011;6416;52.182;7.650;2023-07-30T07:59:56;13.25;;;6.78;;
12703;SDS011;6416;52.182;7.650;2023-07-30T08:02:21;10.77;;;5.60;;
12703;SDS011;6416;52.182;7.650;2023-07-30T08:04:47;9.05;;;5.00;;
12703;SDS011;6416;52.182;7.650;2023-07-30T08:07:12;10.38;;;5.80;;
12703;SDS011;6416;52.182;7.650;2023-07-30T08:09:38;11.23;;;5.60;;
12703;SDS011;6416;52.182;7.650;2023-07-30T08:12:03;10.68;;;5.13;;
12703;SDS011;6416;52.182;7.650;2023-07-30T08:14:29;8.60;;;5.10;;
12703;SDS011;6416;52.182;7.650;2023-07-30T08:16:55;10.18;;;5.57;;
12703;SDS011;6416;52.182;7.650;2023-07-30T08:19:20;12.18;;;5.88;;
12703;SDS011;6416;52.182;7.650;2023-07-30T08:21:46;9.98;;;5.00;;
12703;SDS011;6416;52.182;7.650;2023-07-30T08:24:11;11.57;;;5.78;;
12703;SDS011;6416;52.182;7.650;2023-07-30T08:26:37;9.25;;;5.35;;
12703;SDS011;6416;52.182;7.650;2023-07-30T08:29:02;10.55;;;5.20;;
12703;SDS011;6416;52.182;7.650;2023-07-30T08:31:28;8.73;;;5.25;;
12703;SDS011;6416;52.182;7.650;2023-07-30T08:33:53;7.03;;;4.90;;
12703;SDS011;6416;52.182;7.650;2023-07-30T08:36:19;7.78;;;4.80;;
12703;SDS011;6416;52.182;7.650;2023-07-30T08:38:44;7.93;;;5.05;;
12703;SDS011;6416;52.182;7.650;2023-07-30T08:41:10;13.52;;;5.20;;
12703;SDS011;6416;52.182;7.650;2023-07-30T08:43:35;11.80;;;5.13;;
12703;SDS011;6416;52.182;7.650;2023-07-30T08:46:01;11.13;;;5.00;;
12703;SDS011;6416;52.182;7.650;2023-07-30T08:48:26;9.60;;;5.50;;
12703;SDS011;6416;52.182;7.650;2023-07-30T08:50:54;7.70;;;4.95;;
12703;SDS011;6416;52.182;7.650;2023-07-30T08:53:22;9.25;;;5.45;;
12703;SDS011;6416;52.182;7.650;2023-07-30T08:55:49;10.57;;;5.68;;
12703;SDS011;6416;52.182;7.650;2023-07-30T08:58:15;7.82;;;4.75;;
12703;SDS011;6416;52.182;7.650;2023-07-30T09:00:42;9.90;;;4.70;;
12703;SDS011;6416;52.182;7.650;2023-07-30T09:03:07;8.02;;;5.03;;
12703;SDS011;6416;52.182;7.650;2023-07-30T09:05:34;7.57;;;4.63;;
12703;SDS011;6416;52.182;7.650;2023-07-30T09:07:59;9.77;;;5.05;;
12703;SDS011;6416;52.182;7.650;2023-07-30T09:10:25;7.65;;;4.45;;
12703;SDS011;6416;52.182;7.650;2023-07-30T09:12:55;7.10;;;4.57;;
12703;SDS011;6416;52.182;7.650;2023-07-30T09:15:31;11.65;;;4.90;;
12703;SDS011;6416;52.182;7.650;2023-07-30T09:18:01;9.63;;;4.38;;
12703;SDS011;6416;52.182;7.650;2023-07-30T09:20:27;9.88;;;4.47;;
12703;SDS011;6416;52.182;7.650;2023-07-30T09:22:55;6.50;;;4.68;;
12703;SDS011;6416;52.182;7.650;2023-07-30T09:25:21;9.50;;;5.03;;
12703;SDS011;6416;52.182;7.650;2023-07-30T09:27:47;8.00;;;4.68;;
12703;SDS011;6416;52.182;7.650;2023-07-30T09:30:14;9.40;;;4.80;;
12703;SDS011;6416;52.182;7.650;2023-07-30T09:32:46;7.68;;;4.55;;
12703;SDS011;6416;52.182;7.650;2023-07-30T09:35:15;8.55;;;4.40;;
12703;SDS011;6416;52.182;7.650;2023-07-30T09:37:42;7.47;;;4.20;;
12703;SDS011;6416;52.182;7.650;2023-07-30T09:40:09;8.57;;;4.38;;
12703;SDS011;6416;52.182;7.650;2023-07-30T09:42:38;5.57;;;3.78;;
12703;SDS011;6416;52.182;7.650;2023-07-30T09:45:08;7.57;;;3.75;;
12703;SDS011;6416;52.182;7.650;2023-07-30T09:47:44;7.18;;;3.55;;
12703;SDS011;6416;52.182;7.650;2023-07-30T09:50:11;6.05;;;3.38;;
12703;SDS011;6416;52.182;7.650;2023-07-30T09:52:37;5.70;;;4.30;;
12703;SDS011;6416;52.182;7.650;2023-07-30T09:55:05;6.40;;;3.28;;
12703;SDS011;6416;52.182;7.650;2023-07-30T09:57:32;7.32;;;3.53;;
12703;SDS011;6416;52.182;7.650;2023-07-30T09:59:57;4.82;;;2.75;;
12703;SDS011;6416;52.182;7.650;2023-07-30T10:02:23;5.63;;;2.85;;
12703;SDS011;6416;52.182;7.650;2023-07-30T10:04:51;8.45;;;3.60;;
12703;SDS011;6416;52.182;7.650;2023-07-30T10:07:22;4.28;;;2.55;;
12703;SDS011;6416;52.182;7.650;2023-07-30T10:09:49;5.65;;;2.60;;
12703;SDS011;6416;52.182;7.650;2023-07-30T10:12:17;3.20;;;2.35;;
12703;SDS011;6416;52.182;7.650;2023-07-30T10:14:46;2.75;;;1.90;;
12703;SDS011;6416;52.182;7.650;2023-07-30T10:17:12;5.28;;;2.30;;
12703;SDS011;6416;52.182;7.650;2023-07-30T10:19:38;5.18;;;2.15;;
12703;SDS011;6416;52.182;7.650;2023-07-30T10:24:38;3.47;;;1.98;;
12703;SDS011;6416;52.182;7.650;2023-07-30T10:27:10;6.53;;;2.17;;
12703;SDS011;6416;52.182;7.650;2023-07-30T10:29:35;6.32;;;2.40;;
12703;SDS011;6416;52.182;7.650;2023-07-30T10:32:01;2.80;;;1.70;;
12703;SDS011;6416;52.182;7.650;2023-07-30T10:34:27;4.88;;;2.13;;
12703;SDS011;6416;52.182;7.650;2023-07-30T10:37:21;4.50;;;1.60;;
12703;SDS011;6416;52.182;7.650;2023-07-30T10:39:49;3.30;;;1.58;;
12703;SDS011;6416;52.182;7.650;2023-07-30T10:42:15;4.28;;;1.83;;
12703;SDS011;6416;52.182;7.650;2023-07-30T10:44:43;6.22;;;1.52;;
12703;SDS011;6416;52.182;7.650;2023-07-30T10:47:09;2.63;;;1.58;;
12703;SDS011;6416;52.182;7.650;2023-07-30T10:49:35;4.70;;;1.80;;
12703;SDS011;6416;52.182;7.650;2023-07-30T10:52:02;3.53;;;1.77;;
12703;SDS011;6416;52.182;7.650;2023-07-30T10:54:32;4.35;;;1.50;;
12703;SDS011;6416;52.182;7.650;2023-07-30T10:56:58;4.43;;;1.67;;
12703;SDS011;6416;52.182;7.650;2023-07-30T10:59:24;2.08;;;1.45;;
12703;SDS011;6416;52.182;7.650;2023-07-30T11:01:50;4.85;;;1.52;;
12703;SDS011;6416;52.182;7.650;2023-07-30T11:04:18;4.43;;;1.83;;
12703;SDS011;6416;52.182;7.650;2023-07-30T11:06:49;2.88;;;1.33;;
12703;SDS011;6416;52.182;7.650;2023-07-30T11:11:43;2.92;;;1.40;;
12703;SDS011;6416;52.182;7.650;2023-07-30T11:14:14;4.53;;;1.60;;
12703;SDS011;6416;52.182;7.650;2023-07-30T11:16:46;6.15;;;1.92;;
12703;SDS011;6416;52.182;7.650;2023-07-30T11:19:16;4.32;;;1.40;;
12703;SDS011;6416;52.182;7.650;2023-07-30T11:21:45;4.55;;;1.77;;
12703;SDS011;6416;52.182;7.650;2023-07-30T11:24:11;3.78;;;1.33;;
12703;SDS011;6416;52.182;7.650;2023-07-30T11:26:37;3.72;;;1.38;;
12703;SDS011;6416;52.182;7.650;2023-07-30T11:31:41;4.15;;;1.45;;
12703;SDS011;6416;52.182;7.650;2023-07-30T11:34:08;3.28;;;1.35;;
12703;SDS011;6416;52.182;7.650;2023-07-30T11:36:33;7.47;;;1.80;;
12703;SDS011;6416;52.182;7.650;2023-07-30T11:38:59;3.08;;;1.30;;
12703;SDS011;6416;52.182;7.650;2023-07-30T11:41:25;2.80;;;1.20;;
12703;SDS011;6416;52.182;7.650;2023-07-30T11:43:52;2.72;;;1.10;;
12703;SDS011;6416;52.182;7.650;2023-07-30T11:46:17;3.72;;;1.25;;
12703;SDS011;6416;52.182;7.650;2023-07-30T11:48:44;4.68;;;1.52;;
12703;SDS011;6416;52.182;7.650;2023-07-30T11:51:27;2.92;;;1.20;;
12703;SDS011;6416;52.182;7.650;2023-07-30T11:53:58;3.85;;;1.52;;
12703;SDS011;6416;52.182;7.650;2023-07-30T11:56:24;4.70;;;1.63;;
12703;SDS011;6416;52.182;7.650;2023-07-30T11:58:54;5.95;;;1.67;;
12703;SDS011;6416;52.182;7.650;2023-07-30T12:01:23;3.38;;;1.40;;
12703;SDS011;6416;52.182;7.650;2023-07-30T12:03:54;3.60;;;1.40;;
12703;SDS011;6416;52.182;7.650;2023-07-30T12:06:23;5.57;;;1.95;;
12703;SDS011;6416;52.182;7.650;2023-07-30T12:09:02;3.75;;;1.27;;
12703;SDS011;6416;52.182;7.650;2023-07-30T12:11:45;4.00;;;1.65;;
12703;SDS011;6416;52.182;7.650;2023-07-30T12:14:21;5.93;;;1.60;;
12703;SDS011;6416;52.182;7.650;2023-07-30T12:16:49;4.68;;;2.00;;
12703;SDS011;6416;52.182;7.650;2023-07-30T12:19:14;3.58;;;1.42;;
12703;SDS011;6416;52.182;7.650;2023-07-30T12:21:40;3.03;;;1.35;;
12703;SDS011;6416;52.182;7.650;2023-07-30T12:24:05;3.97;;;1.60;;
12703;SDS011;6416;52.182;7.650;2023-07-30T12:26:31;3.22;;;1.25;;
12703;SDS011;6416;52.182;7.650;2023-07-30T12:28:56;4.05;;;1.40;;
12703;SDS011;6416;52.182;7.650;2023-07-30T12:31:22;2.78;;;1.40;;
12703;SDS011;6416;52.182;7.650;2023-07-30T12:33:47;3.53;;;1.40;;
12703;SDS011;6416;52.182;7.650;2023-07-30T12:36:13;2.45;;;1.25;;
12703;SDS011;6416;52.182;7.650;2023-07-30T12:38:39;3.90;;;1.60;;
12703;SDS011;6416;52.182;7.650;2023-07-30T12:41:04;4.18;;;1.70;;
12703;SDS011;6416;52.182;7.650;2023-07-30T12:43:29;1.98;;;1.30;;
12703;SDS011;6416;52.182;7.650;2023-07-30T12:45:55;4.40;;;1.20;;
12703;SDS011;6416;52.182;7.650;2023-07-30T12:48:20;2.60;;;1.30;;
12703;SDS011;6416;52.182;7.650;2023-07-30T12:50:46;3.13;;;1.20;;
12703;SDS011;6416;52.182;7.650;2023-07-30T12:53:11;1.95;;;1.15;;
12703;SDS011;6416;52.182;7.650;2023-07-30T12:55:37;3.03;;;1.30;;
12703;SDS011;6416;52.182;7.650;2023-07-30T12:58:02;1.75;;;1.00;;
12703;SDS011;6416;52.182;7.650;2023-07-30T13:00:28;3.33;;;1.17;;
12703;SDS011;6416;52.182;7.650;2023-07-30T13:02:53;2.15;;;1.30;;
12703;SDS011;6416;52.182;7.650;2023-07-30T13:05:19;3.20;;;1.25;;
12703;SDS011;6416;52.182;7.650;2023-07-30T13:07:44;1.77;;;1.00;;
12703;SDS011;6416;52.182;7.650;2023-07-30T13:10:10;2.53;;;1.20;;
12703;SDS011;6416;52.182;7.650;2023-07-30T13:12:35;2.40;;;1.23;;
12703;SDS011;6416;52.182;7.650;2023-07-30T13:15:01;1.77;;;1.02;;
12703;SDS011;6416;52.182;7.650;2023-07-30T13:17:27;1.85;;;0.80;;
12703;SDS011;6416;52.182;7.650;2023-07-30T13:19:53;1.30;;;1.00;;
12703;SDS011;6416;52.182;7.650;2023-07-30T13:22:18;1.58;;;0.90;;
12703;SDS011;6416;52.182;7.650;2023-07-30T13:24:44;1.35;;;0.75;;
12703;SDS011;6416;52.182;7.650;2023-07-30T13:27:09;3.08;;;1.08;;
12703;SDS011;6416;52.182;7.650;2023-07-30T13:29:35;2.03;;;1.10;;
12703;SDS011;6416;52.182;7.650;2023-07-30T13:32:00;2.30;;;1.00;;
12703;SDS011;6416;52.182;7.650;2023-07-30T13:34:26;2.25;;;1.13;;
12703;SDS011;6416;52.182;7.650;2023-07-30T13:36:51;2.70;;;1.27;;
12703;SDS011;6416;52.182;7.650;2023-07-30T13:39:17;2.72;;;1.17;;
12703;SDS011;6416;52.182;7.650;2023-07-30T13:41:42;2.78;;;1.30;;
12703;SDS011;6416;52.182;7.650;2023-07-30T13:44:08;2.85;;;1.35;;
12703;SDS011;6416;52.182;7.650;2023-07-30T13:46:33;2.97;;;1.10;;
12703;SDS011;6416;52.182;7.650;2023-07-30T13:48:59;3.90;;;1.27;;
12703;SDS011;6416;52.182;7.650;2023-07-30T13:51:24;2.20;;;1.40;;
12703;SDS011;6416;52.182;7.650;2023-07-30T13:53:50;2.40;;;1.00;;
12703;SDS011;6416;52.182;7.650;2023-07-30T13:56:15;1.23;;;0.93;;
12703;SDS011;6416;52.182;7.650;2023-07-30T13:58:41;2.88;;;1.38;;
12703;SDS011;6416;52.182;7.650;2023-07-30T14:01:06;2.13;;;1.20;;
12703;SDS011;6416;52.182;7.650;2023-07-30T14:03:32;5.45;;;1.30;;
12703;SDS011;6416;52.182;7.650;2023-07-30T14:05:57;2.15;;;1.25;;
12703;SDS011;6416;52.182;7.650;2023-07-30T14:08:23;5.38;;;1.55;;
12703;SDS011;6416;52.182;7.650;2023-07-30T14:10:48;1.60;;;0.95;;
12703;SDS011;6416;52.182;7.650;2023-07-30T14:13:14;1.90;;;1.00;;
12703;SDS011;6416;52.182;7.650;2023-07-30T14:15:39;2.30;;;1.20;;
12703;SDS011;6416;52.182;7.650;2023-07-30T14:18:05;3.00;;;1.23;;
12703;SDS011;6416;52.182;7.650;2023-07-30T14:20:30;1.70;;;1.00;;
12703;SDS011;6416;52.182;7.650;2023-07-30T14:22:57;3.45;;;1.25;;
12703;SDS011;6416;52.182;7.650;2023-07-30T14:25:22;1.58;;;0.90;;
12703;SDS011;6416;52.182;7.650;2023-07-30T14:27:48;2.45;;;1.00;;
12703;SDS011;6416;52.182;7.650;2023-07-30T14:30:13;1.65;;;1.00;;
12703;SDS011;6416;52.182;7.650;2023-07-30T14:32:39;2.20;;;1.40;;
12703;SDS011;6416;52.182;7.650;2023-07-30T14:35:05;1.58;;;0.98;;
12703;SDS011;6416;52.182;7.650;2023-07-30T14:37:30;1.60;;;0.77;;
12703;SDS011;6416;52.182;7.650;2023-07-30T14:39:56;3.45;;;1.05;;
12703;SDS011;6416;52.182;7.650;2023-07-30T14:42:21;3.28;;;0.93;;
12703;SDS011;6416;52.182;7.650;2023-07-30T14:44:47;1.70;;;1.08;;
12703;SDS011;6416;52.182;7.650;2023-07-30T14:47:12;3.00;;;0.95;;
12703;SDS011;6416;52.182;7.650;2023-07-30T14:49:38;1.45;;;0.82;;
12703;SDS011;6416;52.182;7.650;2023-07-30T14:52:03;3.83;;;1.00;;
12703;SDS011;6416;52.182;7.650;2023-07-30T14:54:29;3.60;;;1.15;;
12703;SDS011;6416;52.182;7.650;2023-07-30T14:56:54;1.50;;;0.90;;
12703;SDS011;6416;52.182;7.650;2023-07-30T14:59:20;2.25;;;1.08;;
12703;SDS011;6416;52.182;7.650;2023-07-30T15:01:45;1.40;;;0.90;;